KAP214 KISP-KBOS
Flight info
| Callsign | KAP214 |
|---|---|
| Flight time | N/A |
| Altitude | 7200 |
| Route | ORCHA T320 YANTC T224 WOONS |
| Aircraft | C404/L-SDFR/C |
Departure
| Time | 2026-04-30 19:02 |
|---|---|
| Airport | Long Island MacArthur Airport (KISP) |
Arrival
| Time | N/A |
|---|---|
| Airport | Boston Logan International Airport (KBOS) |
| Time | Latitude | Longitude | Altitude | Speed | Heading |
|---|---|---|---|---|---|
| 2026-04-30 18:54 | 40.79028 | -73.09796 | 87 ft | 0 kts | 180° |
| 2026-04-30 18:56 | 40.79024 | -73.09798 | 89 ft | 1 kts | 216° |
| 2026-04-30 18:56 | 40.79028 | -73.09811 | 88 ft | 4 kts | 339° |
| 2026-04-30 18:56 | 40.79071 | -73.09810 | 87 ft | 9 kts | 351° |
| 2026-04-30 18:57 | 40.79113 | -73.09958 | 88 ft | 13 kts | 269° |
| 2026-04-30 18:57 | 40.79113 | -73.10058 | 90 ft | 7 kts | 269° |
| 2026-04-30 18:57 | 40.79113 | -73.10122 | 91 ft | 6 kts | 270° |
| 2026-04-30 18:58 | 40.79113 | -73.10129 | 91 ft | 6 kts | 270° |
| 2026-04-30 18:58 | 40.79113 | -73.10131 | 91 ft | 6 kts | 270° |
| 2026-04-30 18:58 | 40.79113 | -73.10182 | 92 ft | 5 kts | 270° |
| 2026-04-30 18:59 | 40.79113 | -73.10280 | 93 ft | 10 kts | 269° |
| 2026-04-30 19:00 | 40.79114 | -73.10687 | 98 ft | 8 kts | 285° |
| 2026-04-30 19:00 | 40.79154 | -73.10719 | 98 ft | 7 kts | 355° |
| 2026-04-30 19:00 | 40.79255 | -73.10716 | 98 ft | 7 kts | 17° |
| 2026-04-30 19:01 | 40.79390 | -73.10554 | 98 ft | 43 kts | 47° |
| 2026-04-30 19:01 | 40.79736 | -73.10092 | 91 ft | 96 kts | 46° |
| 2026-04-30 19:02 | 40.80808 | -73.08725 | 509 ft | 106 kts | 41° |
| 2026-04-30 19:02 | 40.81968 | -73.07748 | 1080 ft | 100 kts | 15° |
| 2026-04-30 19:03 | 40.83079 | -73.06531 | 1484 ft | 117 kts | 49° |
| 2026-04-30 19:03 | 40.84216 | -73.04535 | 1580 ft | 169 kts | 50° |
| 2026-04-30 19:04 | 40.84992 | -73.01366 | 1788 ft | 197 kts | 87° |
| 2026-04-30 19:04 | 40.85200 | -72.97756 | 2283 ft | 198 kts | 82° |
| 2026-04-30 19:05 | 40.85564 | -72.94140 | 2812 ft | 197 kts | 82° |
| 2026-04-30 19:05 | 40.85907 | -72.90671 | 3641 ft | 186 kts | 82° |
| 2026-04-30 19:06 | 40.86236 | -72.87297 | 4406 ft | 186 kts | 83° |
| 2026-04-30 19:06 | 40.86400 | -72.85603 | 4777 ft | 186 kts | 83° |
| 2026-04-30 19:06 | 40.86729 | -72.82205 | 5526 ft | 187 kts | 83° |
| 2026-04-30 19:07 | 40.87062 | -72.78764 | 6266 ft | 190 kts | 84° |
| 2026-04-30 19:07 | 40.87229 | -72.77029 | 6619 ft | 191 kts | 84° |
| 2026-04-30 19:08 | 40.87565 | -72.73543 | 7329 ft | 192 kts | 85° |
| 2026-04-30 19:08 | 40.87923 | -72.69710 | 7320 ft | 223 kts | 85° |
| 2026-04-30 19:08 | 40.88118 | -72.67659 | 7320 ft | 231 kts | 84° |
| 2026-04-30 19:09 | 40.88515 | -72.63544 | 7308 ft | 213 kts | 85° |
| 2026-04-30 19:09 | 40.88696 | -72.61652 | 7300 ft | 203 kts | 85° |
| 2026-04-30 19:09 | 40.88871 | -72.59820 | 7293 ft | 200 kts | 86° |
| 2026-04-30 19:10 | 40.89224 | -72.56043 | 7315 ft | 219 kts | 86° |
| 2026-04-30 19:10 | 40.89614 | -72.51886 | 7320 ft | 234 kts | 85° |
| 2026-04-30 19:11 | 40.89815 | -72.49757 | 7317 ft | 232 kts | 85° |
| 2026-04-30 19:11 | 40.90207 | -72.45584 | 7314 ft | 227 kts | 85° |
| 2026-04-30 19:11 | 40.90400 | -72.43514 | 7305 ft | 226 kts | 85° |
| 2026-04-30 19:12 | 40.90591 | -72.41459 | 7303 ft | 226 kts | 85° |
| 2026-04-30 19:12 | 40.90783 | -72.39400 | 7302 ft | 226 kts | 86° |
| 2026-04-30 19:12 | 40.90974 | -72.37342 | 7301 ft | 226 kts | 86° |
| 2026-04-30 19:13 | 40.91368 | -72.33244 | 7297 ft | 226 kts | 81° |
| 2026-04-30 19:13 | 40.93305 | -72.30124 | 7292 ft | 223 kts | 23° |
| 2026-04-30 19:13 | 40.94692 | -72.29277 | 7296 ft | 222 kts | 21° |
| 2026-04-30 19:14 | 40.96104 | -72.28420 | 7300 ft | 223 kts | 22° |
| 2026-04-30 19:14 | 40.97518 | -72.27560 | 7303 ft | 224 kts | 22° |
| 2026-04-30 19:14 | 40.98929 | -72.26697 | 7302 ft | 224 kts | 22° |
| 2026-04-30 19:14 | 41.00340 | -72.25832 | 7303 ft | 224 kts | 22° |
| 2026-04-30 19:15 | 41.01753 | -72.24967 | 7298 ft | 224 kts | 22° |
| 2026-04-30 19:15 | 41.04604 | -72.23220 | 7300 ft | 226 kts | 22° |
| 2026-04-30 19:15 | 41.06033 | -72.22343 | 7304 ft | 226 kts | 22° |
| 2026-04-30 19:16 | 41.07467 | -72.21463 | 7307 ft | 227 kts | 22° |
| 2026-04-30 19:16 | 41.08902 | -72.20582 | 7305 ft | 227 kts | 22° |
| 2026-04-30 19:16 | 41.11741 | -72.18838 | 7303 ft | 226 kts | 22° |
| 2026-04-30 19:17 | 41.13164 | -72.17964 | 7300 ft | 225 kts | 22° |